createdAt,value
2023-04-15T00:00:58.358Z,85.48
2023-04-15T00:03:25.302Z,85.97
2023-04-15T00:05:52.193Z,86.25
2023-04-15T00:08:18.799Z,86.53
2023-04-15T00:10:45.425Z,86.97
2023-04-15T00:13:12.048Z,87.15
2023-04-15T00:15:38.809Z,87.14
2023-04-15T00:18:06.829Z,86.83
2023-04-15T00:20:33.883Z,86.57
2023-04-15T00:23:00.645Z,86.69
2023-04-15T00:25:27.207Z,87.08
2023-04-15T00:27:53.721Z,86.94
2023-04-15T00:30:20.553Z,86.13
2023-04-15T00:32:47.157Z,86.40
2023-04-15T00:35:15.445Z,86.63
2023-04-15T00:37:42.342Z,86.46
2023-04-15T00:40:12.885Z,86.60
2023-04-15T00:42:39.493Z,86.46
2023-04-15T00:45:06.949Z,86.64
2023-04-15T00:47:33.849Z,86.90
2023-04-15T00:50:00.440Z,86.76
2023-04-15T00:52:28.461Z,87.20
2023-04-15T00:54:55.732Z,87.10
2023-04-15T00:57:22.555Z,87.19
2023-04-15T00:59:49.160Z,87.00
2023-04-15T01:02:15.755Z,86.89
2023-04-15T01:04:43.317Z,87.52
2023-04-15T01:07:09.920Z,87.90
2023-04-15T01:09:38.759Z,87.79
2023-04-15T01:12:06.857Z,87.66
2023-04-15T01:14:33.756Z,87.73
2023-04-15T01:17:00.272Z,88.01
2023-04-15T01:19:26.969Z,88.42
2023-04-15T01:21:53.543Z,88.10
2023-04-15T01:24:20.201Z,88.10
2023-04-15T01:26:48.079Z,87.92
2023-04-15T01:29:14.600Z,87.66
2023-04-15T01:31:41.195Z,87.94
2023-04-15T01:34:07.724Z,87.95
2023-04-15T01:36:34.332Z,87.77
2023-04-15T01:39:01.104Z,87.84
2023-04-15T01:41:28.135Z,87.90
2023-04-15T01:43:56.313Z,88.42
2023-04-15T01:46:23.132Z,88.54
2023-04-15T01:48:49.869Z,88.49
2023-04-15T01:51:16.550Z,88.62
2023-04-15T01:53:43.085Z,88.91
2023-04-15T01:56:09.725Z,89.39
2023-04-15T01:58:36.328Z,89.50
2023-04-15T02:01:04.544Z,89.35
2023-04-15T02:03:32.033Z,89.83
2023-04-15T02:05:58.994Z,89.71
2023-04-15T02:08:27.707Z,89.95
2023-04-15T02:10:54.309Z,90.18
2023-04-15T02:13:20.867Z,90.50
2023-04-15T02:15:49.229Z,90.86
2023-04-15T02:18:17.364Z,90.66
2023-04-15T02:20:44.156Z,90.68
2023-04-15T02:23:10.710Z,90.15
2023-04-15T02:25:37.322Z,90.58
2023-04-15T02:28:05.460Z,90.53
2023-04-15T02:30:32.145Z,90.35
2023-04-15T02:33:02.370Z,90.64
2023-04-15T02:35:30.394Z,90.32
2023-04-15T02:37:57.588Z,90.73
2023-04-15T02:40:24.258Z,90.11
2023-04-15T02:42:50.978Z,90.26
2023-04-15T02:45:18.394Z,90.02
2023-04-15T02:47:44.947Z,90.09
2023-04-15T02:50:12.834Z,91.73
2023-04-15T02:52:42.944Z,92.03
2023-04-15T02:55:10.538Z,92.86
2023-04-15T02:57:37.508Z,92.79
2023-04-15T03:00:07.744Z,92.76
2023-04-15T03:02:35.451Z,92.56
2023-04-15T03:05:02.651Z,92.16
2023-04-15T03:07:29.464Z,92.71
2023-04-15T03:09:57.609Z,92.87
2023-04-15T03:12:24.799Z,92.72
2023-04-15T03:14:54.356Z,92.81
2023-04-15T03:17:26.159Z,92.30
2023-04-15T03:19:52.940Z,92.02
2023-04-15T03:22:19.702Z,91.93
2023-04-15T03:24:46.710Z,92.05
2023-04-15T03:27:14.586Z,92.20
2023-04-15T03:29:41.439Z,92.22
2023-04-15T03:32:08.074Z,92.27
2023-04-15T03:34:34.635Z,92.11
2023-04-15T03:37:01.393Z,91.77
2023-04-15T03:39:28.019Z,91.82
2023-04-15T03:41:54.515Z,91.98
2023-04-15T03:44:22.434Z,92.37
2023-04-15T03:46:49.188Z,92.02
2023-04-15T03:49:15.909Z,91.92
2023-04-15T03:51:42.419Z,92.36
2023-04-15T03:54:09.024Z,91.99
2023-04-15T03:56:35.523Z,92.12
2023-04-15T03:59:02.477Z,91.98
2023-04-15T04:01:30.726Z,91.80
2023-04-15T04:03:57.563Z,92.55
2023-04-15T04:06:24.175Z,92.72
2023-04-15T04:08:50.819Z,92.92
2023-04-15T04:11:17.503Z,92.92
2023-04-15T04:13:44.092Z,92.48
2023-04-15T04:16:10.716Z,92.05
2023-04-15T04:18:38.735Z,92.77
2023-04-15T04:21:06.170Z,92.86
2023-04-15T04:23:33.034Z,92.99
2023-04-15T04:25:59.600Z,92.58
2023-04-15T04:28:26.197Z,93.49
2023-04-15T04:30:52.804Z,93.54
2023-04-15T04:33:19.646Z,93.07
2023-04-15T04:35:47.573Z,93.13
2023-04-15T04:38:14.178Z,91.93
2023-04-15T04:40:40.766Z,92.12
2023-04-15T04:43:07.704Z,92.39
2023-04-15T04:45:34.304Z,92.46
2023-04-15T04:48:01.409Z,92.90
2023-04-15T04:50:27.964Z,92.98
2023-04-15T04:52:56.191Z,93.99
2023-04-15T04:55:22.752Z,93.45
2023-04-15T04:57:49.327Z,93.52
2023-04-15T05:00:16.110Z,94.52
2023-04-15T05:02:42.860Z,94.52
2023-04-15T05:05:10.103Z,94.11
2023-04-15T05:07:37.006Z,94.34
2023-04-15T05:10:06.232Z,93.90
2023-04-15T05:12:33.092Z,93.92
2023-04-15T05:14:59.605Z,94.22
2023-04-15T05:17:26.251Z,94.14
2023-04-15T05:19:52.805Z,93.42
2023-04-15T05:22:19.382Z,93.99
2023-04-15T05:24:45.931Z,93.38
2023-04-15T05:27:13.930Z,93.42
2023-04-15T05:29:40.495Z,93.64
2023-04-15T05:32:07.144Z,93.36
2023-04-15T05:34:33.667Z,93.72
2023-04-15T05:37:00.364Z,93.63
2023-04-15T05:39:26.920Z,93.19
2023-04-15T05:41:53.470Z,93.04
2023-04-15T05:44:21.400Z,93.28
2023-04-15T05:46:47.980Z,93.70
2023-04-15T05:49:14.503Z,93.40
2023-04-15T05:51:41.102Z,94.13
2023-04-15T05:54:07.618Z,94.53
2023-04-15T05:56:34.208Z,94.45
2023-04-15T05:59:00.963Z,94.45
2023-04-15T06:01:29.023Z,94.64
2023-04-15T06:03:55.962Z,94.86
2023-04-15T06:06:22.689Z,94.81
2023-04-15T06:08:49.202Z,95.16
2023-04-15T06:11:15.746Z,94.87
2023-04-15T06:13:42.306Z,94.38
2023-04-15T06:16:08.985Z,93.97
2023-04-15T06:18:36.874Z,93.30
2023-04-15T06:21:04.307Z,93.32
2023-04-15T06:23:31.396Z,93.20
2023-04-15T06:25:57.980Z,93.31
2023-04-15T06:28:24.749Z,92.67
2023-04-15T06:30:51.285Z,92.82
2023-04-15T06:33:17.838Z,92.48
2023-04-15T06:35:45.795Z,92.38
2023-04-15T06:38:12.339Z,91.68
2023-04-15T06:40:38.937Z,91.20
2023-04-15T06:43:05.493Z,90.44
2023-04-15T06:45:32.129Z,89.95
2023-04-15T06:47:58.724Z,89.47
2023-04-15T06:50:25.324Z,88.43
2023-04-15T06:52:54.099Z,87.53
2023-04-15T06:55:20.883Z,86.80
2023-04-15T06:57:47.513Z,84.56
2023-04-15T07:00:14.497Z,84.95
2023-04-15T07:02:41.125Z,83.63
2023-04-15T07:05:08.056Z,83.05
2023-04-15T07:07:34.579Z,83.20
2023-04-15T07:10:02.496Z,82.07
2023-04-15T07:12:29.152Z,81.07
2023-04-15T07:14:55.759Z,80.46
2023-04-15T07:17:22.348Z,80.40
2023-04-15T07:19:48.957Z,80.63
2023-04-15T07:22:15.537Z,79.84
2023-04-15T07:24:42.144Z,78.75
2023-04-15T07:27:10.077Z,77.96
2023-04-15T07:29:36.620Z,77.39
2023-04-15T07:32:03.622Z,76.18
2023-04-15T07:34:31.416Z,76.84
2023-04-15T07:36:59.050Z,74.81
2023-04-15T07:39:25.577Z,73.28
2023-04-15T07:41:52.114Z,73.14
2023-04-15T07:44:20.094Z,72.91
2023-04-15T07:46:47.768Z,69.89
2023-04-15T07:49:14.353Z,70.06
2023-04-15T07:51:40.913Z,69.51
2023-04-15T07:54:07.471Z,69.97
2023-04-15T07:56:34.000Z,68.81
2023-04-15T07:59:00.737Z,68.74
2023-04-15T08:01:28.728Z,66.82
2023-04-15T08:03:55.456Z,67.65
2023-04-15T08:06:22.185Z,65.74
2023-04-15T08:08:48.766Z,65.00
2023-04-15T08:11:15.360Z,63.37
2023-04-15T08:13:41.922Z,63.78
2023-04-15T08:16:18.562Z,63.70
2023-04-15T08:18:46.942Z,63.80
2023-04-15T08:21:13.578Z,63.21
2023-04-15T08:23:40.541Z,62.86
2023-04-15T08:26:07.110Z,61.52
2023-04-15T08:28:33.819Z,57.12
2023-04-15T08:31:00.464Z,58.28
2023-04-15T08:33:27.034Z,56.74
2023-04-15T08:35:54.890Z,54.28
2023-04-15T08:38:21.476Z,52.90
2023-04-15T08:40:48.039Z,48.38
2023-04-15T08:43:18.733Z,49.98
2023-04-15T08:45:46.642Z,49.99
2023-04-15T08:48:15.545Z,51.17
2023-04-15T08:50:42.069Z,51.57
2023-04-15T08:53:10.625Z,50.73
2023-04-15T08:55:42.392Z,50.14
2023-04-15T08:58:09.394Z,48.17
2023-04-15T09:00:36.040Z,46.83
2023-04-15T09:03:04.354Z,47.70
2023-04-15T09:05:32.453Z,46.79
2023-04-15T09:07:59.217Z,45.58
2023-04-15T09:10:27.347Z,46.42
2023-04-15T09:12:54.434Z,47.38
2023-04-15T09:15:21.046Z,46.79
2023-04-15T09:17:47.771Z,47.18
2023-04-15T09:20:15.677Z,47.54
2023-04-15T09:22:43.629Z,46.06
2023-04-15T09:25:28.088Z,45.11
2023-04-15T09:27:56.207Z,45.28
2023-04-15T09:30:22.827Z,45.18
2023-04-15T09:32:50.743Z,44.60
2023-04-15T09:35:18.142Z,45.59
2023-04-15T09:37:44.776Z,46.21
2023-04-15T09:40:12.493Z,45.66
2023-04-15T09:42:54.577Z,46.87
2023-04-15T09:45:21.933Z,46.56
2023-04-15T09:47:48.531Z,45.94
2023-04-15T09:50:15.408Z,44.94
2023-04-15T09:52:42.767Z,45.11
2023-04-15T09:55:10.432Z,45.49
2023-04-15T09:57:38.084Z,44.91
2023-04-15T10:00:08.441Z,45.52
2023-04-15T10:02:36.758Z,45.84
2023-04-15T10:05:04.256Z,45.32
2023-04-15T10:07:30.912Z,45.39
2023-04-15T10:09:59.795Z,44.54
2023-04-15T10:12:27.545Z,44.79
2023-04-15T10:14:58.929Z,45.15
2023-04-15T10:17:29.831Z,44.21
2023-04-15T10:19:57.823Z,44.45
2023-04-15T10:22:26.214Z,44.38
2023-04-15T10:24:53.490Z,44.65
2023-04-15T10:27:20.902Z,44.67
2023-04-15T10:29:48.291Z,45.55
2023-04-15T10:32:15.924Z,45.89
2023-04-15T10:34:45.442Z,44.12
2023-04-15T10:37:11.972Z,44.63
2023-04-15T10:39:42.855Z,45.34
2023-04-15T10:42:10.819Z,44.98
2023-04-15T10:44:37.935Z,46.55
2023-04-15T10:47:09.838Z,46.28
2023-04-15T10:49:44.982Z,45.98
2023-04-15T10:52:11.778Z,45.69
2023-04-15T10:54:38.392Z,44.72
2023-04-15T10:57:13.893Z,46.02
2023-04-15T11:00:16.231Z,46.26
2023-04-15T11:02:45.342Z,45.93
2023-04-15T11:05:14.150Z,45.99
2023-04-15T11:07:47.975Z,45.55
2023-04-15T11:10:47.962Z,47.01
2023-04-15T11:13:19.712Z,47.12
2023-04-15T11:15:47.680Z,46.35
2023-04-15T11:18:15.997Z,45.92
2023-04-15T11:20:45.718Z,46.73
2023-04-15T11:23:13.061Z,46.39
2023-04-15T11:25:41.585Z,45.64
2023-04-15T11:28:08.615Z,47.03
2023-04-15T11:30:36.730Z,46.90
2023-04-15T11:33:05.654Z,46.42
2023-04-15T11:35:32.449Z,46.97
2023-04-15T11:38:03.370Z,48.42
2023-04-15T11:40:31.134Z,48.70
2023-04-15T11:43:16.219Z,48.77
2023-04-15T11:45:51.581Z,48.07
2023-04-15T11:48:19.244Z,47.27
2023-04-15T11:50:45.981Z,47.53
2023-04-15T11:53:14.140Z,48.55
2023-04-15T11:55:45.174Z,48.85
2023-04-15T11:58:15.652Z,49.24
2023-04-15T12:00:47.139Z,49.42
2023-04-15T12:03:17.026Z,50.58
2023-04-15T12:06:09.768Z,51.15
2023-04-15T12:08:51.357Z,51.26
2023-04-15T12:11:18.531Z,51.40
2023-04-15T12:13:46.019Z,52.09
2023-04-15T12:16:12.951Z,51.64
2023-04-15T12:18:39.561Z,52.81
2023-04-15T12:21:09.714Z,54.73
2023-04-15T12:23:37.482Z,55.07
2023-04-15T12:26:06.524Z,55.21
2023-04-15T12:28:34.504Z,55.11
2023-04-15T12:31:07.437Z,56.29
2023-04-15T12:33:34.358Z,56.63
2023-04-15T12:36:01.028Z,56.65
2023-04-15T12:38:27.952Z,56.29
2023-04-15T12:40:54.613Z,57.23
2023-04-15T12:43:22.563Z,57.54
2023-04-15T12:45:49.228Z,57.52
2023-04-15T12:48:16.082Z,58.14
2023-04-15T12:50:42.629Z,59.05
2023-04-15T12:53:09.227Z,58.46
2023-04-15T12:55:35.744Z,58.78
2023-04-15T12:58:02.298Z,59.58
2023-04-15T13:00:30.510Z,59.86
2023-04-15T13:02:57.479Z,59.90
2023-04-15T13:05:24.317Z,59.67
2023-04-15T13:07:55.140Z,60.23
2023-04-15T13:10:25.274Z,61.18
2023-04-15T13:12:52.025Z,61.19
2023-04-15T13:15:18.629Z,62.30
2023-04-15T13:17:46.683Z,63.15
2023-04-15T13:20:13.281Z,64.07
2023-04-15T13:22:40.034Z,63.77
2023-04-15T13:25:07.432Z,64.83
2023-04-15T13:27:34.003Z,65.03
2023-04-15T13:30:01.013Z,64.80
2023-04-15T13:32:27.587Z,65.98
2023-04-15T13:34:55.466Z,66.39
2023-04-15T13:37:26.373Z,65.42
2023-04-15T13:39:52.979Z,65.75
2023-04-15T13:42:19.733Z,66.78
2023-04-15T13:44:46.340Z,66.50
2023-04-15T13:47:12.923Z,68.83
2023-04-15T13:49:39.552Z,68.22
2023-04-15T13:52:07.576Z,67.64
2023-04-15T13:54:37.849Z,68.22
2023-04-15T13:57:05.144Z,68.02
2023-04-15T13:59:32.782Z,67.68
2023-04-15T14:01:59.404Z,67.40
2023-04-15T14:04:26.195Z,67.08
2023-04-15T14:06:52.981Z,66.88
2023-04-15T14:09:20.875Z,67.33
2023-04-15T14:11:47.453Z,66.95
2023-04-15T14:14:15.281Z,67.71
2023-04-15T14:16:43.187Z,68.34
2023-04-15T14:19:10.141Z,68.94
2023-04-15T14:21:36.681Z,68.67
2023-04-15T14:24:03.587Z,68.52
2023-04-15T14:26:31.603Z,69.33
2023-04-15T14:28:58.194Z,69.51
2023-04-15T14:31:24.805Z,68.85
2023-04-15T14:33:51.313Z,69.69
2023-04-15T14:36:18.113Z,69.77
2023-04-15T14:38:45.130Z,69.64
2023-04-15T14:41:12.680Z,70.41
2023-04-15T14:43:40.585Z,70.39
2023-04-15T14:46:07.183Z,71.27
2023-04-15T14:48:33.818Z,71.35
2023-04-15T14:51:00.520Z,69.42
2023-04-15T14:53:27.037Z,70.82
2023-04-15T14:55:53.637Z,71.56
2023-04-15T14:58:20.168Z,71.35
2023-04-15T15:00:48.217Z,71.47
2023-04-15T15:03:14.987Z,72.26
2023-04-15T15:05:43.128Z,71.98
2023-04-15T15:08:10.357Z,72.16
2023-04-15T15:10:49.063Z,72.77
2023-04-15T15:13:16.920Z,73.15
2023-04-15T15:15:43.720Z,73.93
2023-04-15T15:18:11.767Z,75.01
2023-04-15T15:20:38.369Z,74.43
2023-04-15T15:23:04.980Z,74.03
2023-04-15T15:25:31.560Z,73.84
2023-04-15T15:27:58.603Z,73.01
2023-04-15T15:30:25.324Z,73.35
2023-04-15T15:32:52.094Z,72.14
2023-04-15T15:35:20.283Z,73.84
2023-04-15T15:37:47.145Z,73.88
2023-04-15T15:40:14.049Z,74.16
2023-04-15T15:42:40.752Z,74.56
2023-04-15T15:45:07.915Z,74.72
2023-04-15T15:47:34.612Z,74.64
2023-04-15T15:50:02.029Z,73.84
2023-04-15T15:52:31.009Z,74.72
2023-04-15T15:54:57.550Z,75.45
2023-04-15T15:57:24.137Z,75.55
2023-04-15T15:59:53.074Z,75.23
2023-04-15T16:02:40.074Z,75.61
2023-04-15T16:05:11.429Z,75.38
2023-04-15T16:07:39.325Z,74.38
2023-04-15T16:10:07.128Z,72.93
2023-04-15T16:12:35.053Z,73.92
2023-04-15T16:15:02.020Z,73.70
2023-04-15T16:17:28.597Z,73.96
2023-04-15T16:19:57.880Z,74.35
2023-04-15T16:22:27.786Z,74.58
2023-04-15T16:24:55.704Z,75.12
2023-04-15T16:27:22.316Z,74.68
2023-04-15T16:29:48.842Z,75.18
2023-04-15T16:32:15.507Z,76.04
2023-04-15T16:34:42.257Z,75.07
2023-04-15T16:37:08.972Z,74.73
2023-04-15T16:39:35.911Z,75.04
2023-04-15T16:42:03.974Z,74.92
2023-04-15T16:44:30.570Z,75.23
2023-04-15T16:46:57.223Z,76.13
2023-04-15T16:49:23.740Z,75.72
2023-04-15T16:51:50.565Z,76.30
2023-04-15T16:54:17.097Z,76.16
2023-04-15T16:56:43.933Z,76.06
2023-04-15T16:59:11.847Z,76.11
2023-04-15T17:01:39.716Z,76.20
2023-04-15T17:04:07.163Z,75.90
2023-04-15T17:06:33.910Z,76.75
2023-04-15T17:09:00.388Z,76.68
2023-04-15T17:11:27.567Z,76.86
2023-04-15T17:13:54.125Z,77.41
2023-04-15T17:16:22.129Z,76.92
2023-04-15T17:18:48.968Z,76.85
2023-04-15T17:21:16.372Z,76.97
2023-04-15T17:23:42.902Z,77.85
2023-04-15T17:26:09.497Z,77.29
2023-04-15T17:28:36.025Z,77.31
2023-04-15T17:31:03.616Z,77.46
2023-04-15T17:34:00.812Z,77.55
2023-04-15T17:36:18.355Z,78.26
2023-04-15T17:38:44.880Z,78.00
2023-04-15T17:41:11.484Z,79.15
2023-04-15T17:43:37.994Z,78.54
2023-04-15T17:46:06.088Z,78.96
2023-04-15T17:48:34.242Z,79.15
2023-04-15T17:51:00.869Z,79.71
2023-04-15T17:53:27.389Z,79.01
2023-04-15T17:55:53.964Z,79.72
2023-04-15T17:58:20.573Z,79.95
2023-04-15T18:00:47.525Z,80.42
2023-04-15T18:03:14.693Z,80.44
2023-04-15T18:05:42.937Z,81.06
2023-04-15T18:08:09.722Z,81.42
2023-04-15T18:10:36.412Z,81.22
2023-04-15T18:13:02.933Z,81.54
2023-04-15T18:15:29.593Z,81.72
2023-04-15T18:17:56.533Z,81.52
2023-04-15T18:20:23.436Z,81.98
2023-04-15T18:22:51.898Z,82.45
2023-04-15T18:25:18.987Z,82.74
2023-04-15T18:27:45.509Z,83.01
2023-04-15T18:30:12.604Z,83.19
2023-04-15T18:32:39.533Z,83.83
2023-04-15T18:35:06.963Z,83.42
2023-04-15T18:37:33.482Z,83.68
2023-04-15T18:40:01.578Z,83.37
2023-04-15T18:42:28.383Z,83.69
2023-04-15T18:44:55.007Z,83.52
2023-04-15T18:47:21.556Z,83.80
2023-04-15T18:49:48.206Z,84.60
2023-04-15T18:52:14.686Z,84.27
2023-04-15T18:54:41.282Z,84.17
2023-04-15T18:57:09.525Z,84.59
2023-04-15T18:59:36.351Z,84.50
2023-04-15T19:02:03.054Z,84.00
2023-04-15T19:04:29.949Z,84.62
2023-04-15T19:06:56.606Z,84.32
2023-04-15T19:09:23.218Z,84.46
2023-04-15T19:11:49.760Z,84.58
2023-04-15T19:14:18.130Z,84.62
2023-04-15T19:16:44.695Z,84.29
2023-04-15T19:19:11.370Z,84.19
2023-04-15T19:21:37.879Z,84.22
2023-04-15T19:24:04.746Z,84.42
2023-04-15T19:26:31.291Z,84.64
2023-04-15T19:28:57.834Z,84.70
2023-04-15T19:31:25.890Z,84.25
2023-04-15T19:33:52.610Z,84.50
2023-04-15T19:36:19.150Z,84.33
2023-04-15T19:38:45.740Z,84.41
2023-04-15T19:41:12.249Z,84.10
2023-04-15T19:43:38.854Z,84.10
2023-04-15T19:46:06.683Z,84.01
2023-04-15T19:48:35.099Z,84.37
2023-04-15T19:51:01.661Z,84.52
2023-04-15T19:53:29.232Z,84.80
2023-04-15T19:55:56.217Z,84.89
2023-04-15T19:58:22.803Z,85.75
2023-04-15T20:00:49.315Z,85.69
2023-04-15T20:03:16.144Z,85.68
2023-04-15T20:05:44.328Z,85.91
2023-04-15T20:08:10.982Z,86.15
2023-04-15T20:10:37.755Z,85.98
2023-04-15T20:13:04.466Z,86.12
2023-04-15T20:15:31.078Z,85.93
2023-04-15T20:17:57.766Z,86.09
2023-04-15T20:20:24.315Z,86.38
2023-04-15T20:22:52.261Z,86.17
2023-04-15T20:25:18.858Z,86.63
2023-04-15T20:27:45.559Z,87.14
2023-04-15T20:30:12.156Z,87.18
2023-04-15T20:32:38.936Z,87.26
2023-04-15T20:35:06.830Z,87.81
2023-04-15T20:37:34.084Z,87.71
2023-04-15T20:40:02.431Z,87.81
2023-04-15T20:42:32.331Z,87.89
2023-04-15T20:44:59.215Z,87.94
2023-04-15T20:47:26.065Z,88.17
2023-04-15T20:49:52.656Z,88.51
2023-04-15T20:52:19.306Z,89.12
2023-04-15T20:54:45.873Z,89.17
2023-04-15T20:57:13.891Z,89.55
2023-04-15T20:59:40.418Z,89.99
2023-04-15T21:02:07.154Z,90.24
2023-04-15T21:04:33.785Z,90.07
2023-04-15T21:07:00.706Z,90.00
2023-04-15T21:09:27.393Z,90.20
2023-04-15T21:12:00.987Z,89.95
2023-04-15T21:14:29.500Z,90.02
2023-04-15T21:16:56.780Z,90.23
2023-04-15T21:19:23.605Z,90.41
2023-04-15T21:21:50.193Z,90.04
2023-04-15T21:24:16.896Z,89.89
2023-04-15T21:26:43.427Z,89.79
2023-04-15T21:29:11.748Z,90.11
2023-04-15T21:31:40.044Z,89.90
2023-04-15T21:34:06.724Z,89.78
2023-04-15T21:36:33.360Z,89.92
2023-04-15T21:39:00.054Z,89.75
2023-04-15T21:41:27.021Z,89.86
2023-04-15T21:43:53.849Z,89.63
2023-04-15T21:46:23.090Z,89.34
2023-04-15T21:48:52.801Z,89.46
2023-04-15T21:51:19.449Z,89.63
2023-04-15T21:53:46.187Z,89.77
2023-04-15T21:56:12.752Z,89.59
2023-04-15T21:58:39.449Z,89.69
2023-04-15T22:01:06.397Z,89.54
2023-04-15T22:03:34.825Z,89.28
2023-04-15T22:06:03.784Z,89.81
2023-04-15T22:08:38.171Z,89.69
2023-04-15T22:11:18.886Z,89.59
2023-04-15T22:13:45.455Z,89.49
2023-04-15T22:16:11.999Z,89.17
2023-04-15T22:18:38.672Z,88.93
2023-04-15T22:21:06.533Z,89.27
2023-04-15T22:23:33.316Z,89.75
2023-04-15T22:25:59.884Z,90.04
2023-04-15T22:28:26.464Z,90.46
2023-04-15T22:30:53.313Z,90.28
2023-04-15T22:33:20.067Z,90.56
2023-04-15T22:35:46.570Z,90.45
2023-04-15T22:38:14.547Z,90.54
2023-04-15T22:40:41.092Z,90.65
2023-04-15T22:43:07.707Z,90.57
2023-04-15T22:45:34.222Z,90.71
2023-04-15T22:48:00.890Z,90.98
2023-04-15T22:50:27.419Z,90.96
2023-04-15T22:52:54.011Z,91.17
2023-04-15T22:55:22.090Z,90.72
2023-04-15T22:57:48.658Z,90.76
2023-04-15T23:00:15.246Z,90.80
2023-04-15T23:02:41.945Z,90.56
2023-04-15T23:05:12.866Z,90.79
2023-04-15T23:07:40.066Z,90.76
2023-04-15T23:10:08.166Z,90.83
2023-04-15T23:12:36.138Z,90.81
2023-04-15T23:15:02.848Z,91.43
2023-04-15T23:17:29.455Z,91.33
2023-04-15T23:19:56.009Z,91.50
2023-04-15T23:22:22.572Z,91.78
2023-04-15T23:24:49.113Z,91.70
2023-04-15T23:27:15.955Z,92.02
2023-04-15T23:29:43.797Z,92.21
2023-04-15T23:32:10.412Z,92.39
2023-04-15T23:34:37.285Z,92.42
2023-04-15T23:37:03.860Z,93.29
2023-04-15T23:39:30.437Z,93.12
2023-04-15T23:41:57.123Z,92.91
2023-04-15T23:44:23.654Z,92.78
2023-04-15T23:46:51.653Z,92.76
2023-04-15T23:49:20.250Z,92.79
2023-04-15T23:51:47.214Z,93.61
2023-04-15T23:54:14.352Z,93.11
2023-04-15T23:56:41.193Z,93.36
2023-04-15T23:59:07.949Z,93.54
